Time;durP1;ratioP1;P1;durP2;ratioP2;P2;SDS_P1;SDS_P2;PMS_P1;PMS_P2;Temp;Humidity;BMP_temperature;BMP_pressure;BME280_temperature;BME280_humidity;BME280_pressure;Samples;Min_cycle;Max_cycle;Signal;HPM_P1;HPM_P2
2022/07/29 00:01:16;;;;;;;;;4.75;4.75;;;;;-146.44;100.00;58906.56;5061651;27;45535;-60
2022/07/29 00:03:41;;;;;;;;;7.00;7.00;;;;;-146.44;100.00;58906.56;5072756;28;47244;-59
2022/07/29 00:06:07;;;;;;;;;6.50;6.50;;;;;-146.44;100.00;58906.56;5057835;28;45513;-59
2022/07/29 00:08:33;;;;;;;;;5.50;5.50;;;;;-146.44;100.00;58906.56;5057873;28;45449;-60
2022/07/29 00:10:58;;;;;;;;;4.75;4.75;;;;;-146.44;100.00;58906.56;5069999;28;45363;-60
2022/07/29 00:13:24;;;;;;;;;4.50;4.50;;;;;-146.44;100.00;58906.56;5077996;27;46024;-60
2022/07/29 00:15:49;;;;;;;;;5.25;5.25;;;;;-146.44;100.00;58906.56;5078077;27;45380;-60
2022/07/29 00:18:14;;;;;;;;;6.67;6.67;;;;;-146.44;100.00;58906.56;5078281;27;45363;-59
2022/07/29 00:20:40;;;;;;;;;6.00;6.00;;;;;-146.44;100.00;58906.56;5077077;28;45586;-59
2022/07/29 00:23:05;;;;;;;;;6.33;6.33;;;;;-146.44;100.00;58906.56;5077977;27;45338;-59
2022/07/29 00:25:30;;;;;;;;;7.00;7.00;;;;;-146.44;100.00;58906.56;5067148;27;45416;-60
2022/07/29 00:27:56;;;;;;;;;7.00;7.00;;;;;-146.44;100.00;58906.56;5058890;28;45351;-60
2022/07/29 00:30:22;;;;;;;;;4.75;4.75;;;;;-146.44;100.00;58906.56;5072532;27;45448;-60
2022/07/29 00:32:47;;;;;;;;;7.75;6.75;;;;;-146.44;100.00;58906.56;5058334;28;45531;-59
2022/07/29 00:37:56;;;;;;;;;7.25;7.00;;;;;-146.44;100.00;58906.56;5057640;28;45457;-60
2022/07/29 00:40:22;;;;;;;;;6.50;5.25;;;;;-146.44;100.00;58906.56;5057350;28;45572;-64
2022/07/29 00:42:50;;;;;;;;;6.25;5.00;;;;;-146.44;100.00;58906.56;5057158;28;46136;-60
2022/07/29 00:45:16;;;;;;;;;7.00;7.00;;;;;-146.44;100.00;58906.56;5063008;28;45521;-60
2022/07/29 00:47:42;;;;;;;;;6.25;6.25;;;;;-146.44;100.00;58906.56;5077736;27;45497;-59
2022/07/29 00:50:10;;;;;;;;;6.75;6.75;;;;;-146.44;100.00;58906.56;5077659;28;45537;-61
2022/07/29 00:52:36;;;;;;;;;5.00;5.00;;;;;-146.44;100.00;58906.56;5074414;27;46519;-59
2022/07/29 00:55:04;;;;;;;;;7.00;6.00;;;;;-146.44;100.00;58906.56;5072606;28;45450;-59
2022/07/29 00:57:30;;;;;;;;;5.25;5.25;;;;;-146.44;100.00;58906.56;5061919;28;45510;-59
2022/07/29 00:59:55;;;;;;;;;7.00;5.25;;;;;-146.44;100.00;58906.56;5077628;27;45450;-59
2022/07/29 01:02:21;;;;;;;;;8.00;7.00;;;;;-146.44;100.00;58906.56;5077079;28;45383;-60
2022/07/29 01:04:46;;;;;;;;;7.25;7.25;;;;;-146.44;100.00;58906.56;5077153;27;45458;-59
2022/07/29 01:07:12;;;;;;;;;6.50;6.50;;;;;-146.44;100.00;58906.56;5077715;27;45434;-59
2022/07/29 01:09:38;;;;;;;;;7.00;7.00;;;;;-146.44;100.00;58906.56;5077265;27;45404;-59
2022/07/29 01:12:05;;;;;;;;;6.00;6.00;;;;;-146.44;100.00;58906.56;5073573;28;45791;-59
2022/07/29 01:14:31;;;;;;;;;10.33;10.00;;;;;-146.44;100.00;58906.56;5056799;28;45496;-60
2022/07/29 01:17:23;;;;;;;;;7.00;7.00;;;;;-146.44;100.00;58906.56;5056562;28;45519;-60
2022/07/29 01:20:00;;;;;;;;;8.00;8.00;;;;;-146.44;100.00;58906.56;5056974;28;45359;-60
2022/07/29 01:22:53;;;;;;;;;7.50;7.50;;;;;-146.44;100.00;58906.56;5063344;28;46141;-59
2022/07/29 01:25:43;;;;;;;;;9.50;8.00;;;;;-146.44;100.00;58906.56;5077115;27;45553;-59
2022/07/29 01:28:39;;;;;;;;;6.25;6.25;;;;;-146.44;100.00;58906.56;5076885;28;45473;-59
2022/07/29 01:31:08;;;;;;;;;9.00;9.00;;;;;-146.44;100.00;58906.56;5076987;27;45381;-59
2022/07/29 01:33:50;;;;;;;;;7.00;7.00;;;;;-146.44;100.00;58906.56;5075076;27;47016;-59
2022/07/29 01:36:33;;;;;;;;;6.50;6.50;;;;;-146.44;100.00;58906.56;5076820;27;45410;-60
2022/07/29 01:39:27;;;;;;;;;9.75;9.75;;;;;-146.44;100.00;58906.56;5077137;27;45366;-60
2022/07/29 01:42:23;;;;;;;;;6.50;6.50;;;;;-146.44;100.00;58906.56;5076271;27;45372;-59
2022/07/29 01:45:27;;;;;;;;;9.00;9.00;;;;;-146.44;100.00;58906.56;5056255;28;46113;-60
2022/07/29 01:48:15;;;;;;;;;7.50;6.25;;;;;-146.44;100.00;58906.56;5055462;28;45441;-59
2022/07/29 01:50:48;;;;;;;;;7.00;7.00;;;;;-146.44;100.00;58906.56;5057526;28;45419;-59
2022/07/29 01:53:21;;;;;;;;;9.25;9.25;;;;;-146.44;100.00;58906.56;5056463;28;45369;-59
2022/07/29 01:55:48;;;;;;;;;7.00;7.00;;;;;-146.44;100.00;58906.56;5056210;28;46047;-59
2022/07/29 01:58:17;;;;;;;;;8.00;8.00;;;;;-146.44;100.00;58906.56;5055579;28;45466;-59
2022/07/29 02:00:46;;;;;;;;;7.00;7.00;;;;;-146.44;100.00;58906.56;5056479;28;45540;-59
2022/07/29 02:03:15;;;;;;;;;6.00;6.00;;;;;-146.44;100.00;58906.56;5057828;27;45371;-59
2022/07/29 02:05:43;;;;;;;;;6.75;6.25;;;;;-146.44;100.00;58906.56;5061007;28;45564;-59
2022/07/29 02:08:10;;;;;;;;;7.00;7.00;;;;;-146.44;100.00;58906.56;5068333;27;45470;-59
2022/07/29 02:10:38;;;;;;;;;8.00;7.00;;;;;-146.44;100.00;58906.56;5058286;28;45415;-60
2022/07/29 02:13:05;;;;;;;;;5.75;5.75;;;;;-146.44;100.00;58906.56;5056159;28;45426;-60
2022/07/29 02:15:34;;;;;;;;;7.25;7.25;;;;;-146.44;100.00;58906.56;5062972;28;46185;-60
2022/07/29 02:18:07;;;;;;;;;7.00;7.00;;;;;-146.44;100.00;58906.56;5069073;27;45508;-60
2022/07/29 02:20:34;;;;;;;;;7.00;7.00;;;;;-146.44;100.00;58906.56;5062095;28;45648;-60
2022/07/29 02:23:01;;;;;;;;;9.25;9.25;;;;;-146.44;100.00;58906.56;5054819;28;45522;-60
2022/07/29 02:25:27;;;;;;;;;6.75;6.00;;;;;-146.44;100.00;58906.56;5058877;28;46461;-60
2022/07/29 02:27:54;;;;;;;;;7.25;7.25;;;;;-146.44;100.00;58906.56;5072689;28;45347;-60
2022/07/29 02:30:22;;;;;;;;;8.00;8.00;;;;;-146.44;100.00;58906.56;5066757;27;45375;-60
2022/07/29 02:32:50;;;;;;;;;7.50;7.50;;;;;-146.44;100.00;58906.56;5059722;28;45766;-60
2022/07/29 02:35:18;;;;;;;;;7.00;7.00;;;;;-146.44;100.00;58906.56;5069010;27;46157;-60
2022/07/29 02:38:49;;;;;;;;;8.00;8.00;;;;;-146.44;100.00;58906.56;5068750;28;45462;-60
2022/07/29 02:40:32;;;;;;;;;7.50;7.50;;;;;-146.44;100.00;58906.56;5063893;28;45636;-60
2022/07/29 02:42:59;;;;;;;;;9.50;9.00;;;;;-146.44;100.00;58906.56;5067070;28;45517;-60
2022/07/29 02:45:25;;;;;;;;;7.33;7.33;;;;;-146.44;100.00;58906.56;5055644;28;45502;-60
2022/07/29 02:47:51;;;;;;;;;10.00;9.00;;;;;-146.44;100.00;58906.56;5055700;28;45389;-60
2022/07/29 02:50:32;;;;;;;;;9.33;9.00;;;;;-146.44;100.00;58906.56;5055490;28;45442;-60
2022/07/29 02:53:03;;;;;;;;;7.33;7.00;;;;;-146.44;100.00;58906.56;5054240;28;45609;-60
2022/07/29 02:55:39;;;;;;;;;6.75;6.00;;;;;-146.44;100.00;58906.56;5065011;28;46041;-60
2022/07/29 02:58:22;;;;;;;;;6.00;6.00;;;;;-146.44;100.00;58906.56;5070852;27;45481;-60
2022/07/29 03:00:51;;;;;;;;;6.75;6.25;;;;;-146.44;100.00;58906.56;5065445;28;45514;-60
2022/07/29 03:03:18;;;;;;;;;8.33;6.67;;;;;-146.44;100.00;58906.56;5058648;28;45585;-60
2022/07/29 03:05:43;;;;;;;;;6.00;6.00;;;;;-146.44;100.00;58906.56;5057646;28;45500;-60
2022/07/29 03:08:11;;;;;;;;;8.67;8.67;;;;;-146.44;100.00;58906.56;5058482;28;45606;-59
2022/07/29 03:10:39;;;;;;;;;6.33;6.33;;;;;-146.44;100.00;58906.56;5058220;28;45366;-60
2022/07/29 03:13:05;;;;;;;;;7.33;7.33;;;;;-146.44;100.00;58906.56;5059982;28;45401;-60
2022/07/29 03:15:31;;;;;;;;;8.00;8.00;;;;;-146.44;100.00;58906.56;5058750;28;46038;-60
2022/07/29 03:17:58;;;;;;;;;10.67;7.67;;;;;-146.44;100.00;58906.56;5059208;28;45602;-60
2022/07/29 03:20:24;;;;;;;;;6.33;6.33;;;;;-146.44;100.00;58906.56;5073053;28;45421;-60
2022/07/29 03:22:50;;;;;;;;;7.00;7.00;;;;;-146.44;100.00;58906.56;5077248;27;45393;-59
2022/07/29 03:25:18;;;;;;;;;10.33;8.33;;;;;-146.44;100.00;58906.56;5078491;28;45428;-60
2022/07/29 03:27:44;;;;;;;;;8.00;8.00;;;;;-146.44;100.00;58906.56;5079113;28;45445;-58
2022/07/29 03:30:11;;;;;;;;;11.00;11.00;;;;;-146.44;100.00;58906.56;5063635;27;45424;-57
2022/07/29 03:32:37;;;;;;;;;14.00;13.00;;;;;-146.44;100.00;58906.56;5091473;27;45543;-58
2022/07/29 03:35:04;;;;;;;;;10.00;9.00;;;;;-146.44;100.00;58906.56;5078596;27;45464;-60
2022/07/29 03:37:30;;;;;;;;;9.67;9.67;;;;;-146.44;100.00;58906.56;5077001;27;45374;-60
2022/07/29 03:39:57;;;;;;;;;9.33;9.33;;;;;-146.44;100.00;58906.56;5078641;27;45361;-60
2022/07/29 03:42:30;;;;;;;;;8.33;8.33;;;;;-146.44;100.00;58906.56;5078585;28;45441;-61
2022/07/29 03:44:58;;;;;;;;;9.00;9.00;;;;;-146.44;100.00;58906.56;5078410;27;45688;-60
2022/07/29 03:47:27;;;;;;;;;7.00;7.00;;;;;-146.44;100.00;58906.56;5075417;27;45512;-60
2022/07/29 03:49:56;;;;;;;;;8.33;8.33;;;;;-146.44;100.00;58906.56;5078436;27;45453;-60
2022/07/29 03:52:22;;;;;;;;;10.33;9.00;;;;;-146.44;100.00;58906.56;5078645;27;45524;-59
2022/07/29 03:54:48;;;;;;;;;10.00;10.00;;;;;-146.44;100.00;58906.56;5073696;28;45426;-60
2022/07/29 03:57:18;;;;;;;;;12.33;9.67;;;;;-146.44;100.00;58906.56;5065891;28;45445;-60
2022/07/29 03:59:45;;;;;;;;;9.00;9.00;;;;;-146.44;100.00;58906.56;5062246;27;45655;-60
2022/07/29 04:02:11;;;;;;;;;9.67;9.00;;;;;-146.44;100.00;58906.56;5057612;28;45390;-60
2022/07/29 04:04:37;;;;;;;;;11.67;9.33;;;;;-146.44;100.00;58906.56;5056571;28;46207;-60
2022/07/29 04:07:03;;;;;;;;;8.33;6.67;;;;;-146.44;100.00;58906.56;5055365;28;45604;-60
2022/07/29 04:09:29;;;;;;;;;8.33;7.33;;;;;-146.44;100.00;58906.56;5073018;28;45603;-60
2022/07/29 04:11:54;;;;;;;;;8.00;8.00;;;;;-146.44;100.00;58906.56;5071712;28;45547;-60
2022/07/29 04:14:20;;;;;;;;;9.33;9.33;;;;;-146.44;100.00;58906.56;5057695;28;46219;-60
2022/07/29 04:16:45;;;;;;;;;8.67;8.67;;;;;-146.44;100.00;58906.56;5073009;28;45530;-60
2022/07/29 04:19:11;;;;;;;;;11.00;10.00;;;;;-146.44;100.00;58906.56;5057287;28;45454;-60
2022/07/29 04:21:40;;;;;;;;;10.00;10.00;;;;;-146.44;100.00;58906.56;5056781;28;45624;-60
2022/07/29 04:24:06;;;;;;;;;10.00;10.00;;;;;-146.44;100.00;58906.56;5058502;28;46350;-60
2022/07/29 04:26:33;;;;;;;;;9.33;9.33;;;;;-146.44;100.00;58906.56;5057835;28;45439;-60
2022/07/29 04:28:58;;;;;;;;;9.00;9.00;;;;;-146.44;100.00;58906.56;5061884;28;45433;-60
2022/07/29 04:31:24;;;;;;;;;9.33;9.33;;;;;-146.44;100.00;58906.56;5065681;27;45581;-60
2022/07/29 04:33:49;;;;;;;;;10.33;10.33;;;;;-146.44;100.00;58906.56;5072800;28;45704;-60
2022/07/29 04:36:14;;;;;;;;;9.00;9.00;;;;;-146.44;100.00;58906.56;5066660;28;45351;-61
2022/07/29 04:38:40;;;;;;;;;11.00;11.00;;;;;-146.44;100.00;58906.56;5076178;28;45866;-60
2022/07/29 04:41:06;;;;;;;;;10.00;10.00;;;;;-146.44;100.00;58906.56;5077779;28;45531;-60
2022/07/29 04:43:33;;;;;;;;;13.00;12.00;;;;;-146.44;100.00;58906.56;5074072;27;45476;-60
2022/07/29 04:45:58;;;;;;;;;11.33;10.33;;;;;-146.44;100.00;58906.56;5074558;27;45437;-60
2022/07/29 04:48:24;;;;;;;;;11.00;10.00;;;;;-146.44;100.00;58906.56;5077527;27;45497;-60
2022/07/29 04:50:50;;;;;;;;;10.33;9.00;;;;;-146.44;100.00;58906.56;5069099;27;45502;-60
2022/07/29 04:53:15;;;;;;;;;14.00;12.33;;;;;-146.44;100.00;58906.56;5074428;28;46188;-60
2022/07/29 04:55:40;;;;;;;;;11.00;11.00;;;;;-146.44;100.00;58906.56;5065997;28;45394;-60
2022/07/29 04:58:07;;;;;;;;;9.67;9.67;;;;;-146.44;100.00;58906.56;5072928;28;45583;-60
2022/07/29 05:00:32;;;;;;;;;14.00;13.67;;;;;-146.44;100.00;58906.56;5077352;27;45539;-60
2022/07/29 05:02:58;;;;;;;;;11.33;10.33;;;;;-146.44;100.00;58906.56;5070567;27;45453;-60
2022/07/29 05:05:23;;;;;;;;;9.00;9.00;;;;;-146.44;100.00;58906.56;5075878;28;45873;-60
2022/07/29 05:07:48;;;;;;;;;11.00;11.00;;;;;-146.44;100.00;58906.56;5077426;28;45393;-60
2022/07/29 05:10:14;;;;;;;;;12.00;11.00;;;;;-146.44;100.00;58906.56;5077156;28;45430;-60
2022/07/29 05:12:39;;;;;;;;;2.33;1.00;;;;;-146.44;100.00;58906.56;5072587;28;45540;-60
2022/07/29 05:15:05;;;;;;;;;10.00;10.00;;;;;-146.44;100.00;58906.56;5076180;28;45416;-60
2022/07/29 05:17:30;;;;;;;;;12.67;12.67;;;;;-146.44;100.00;58906.56;5068472;28;45662;-60
2022/07/29 05:19:56;;;;;;;;;9.00;9.00;;;;;-146.44;100.00;58906.56;5073970;27;45643;-60
2022/07/29 05:22:21;;;;;;;;;11.33;10.67;;;;;-146.44;100.00;58906.56;5076995;27;45487;-61
2022/07/29 05:24:47;;;;;;;;;10.00;10.00;;;;;-146.44;100.00;58906.56;5076906;28;45526;-60
2022/07/29 05:27:12;;;;;;;;;9.00;9.00;;;;;-146.44;100.00;58906.56;5075402;28;45398;-60
2022/07/29 05:29:38;;;;;;;;;9.33;8.67;;;;;-146.44;100.00;58906.56;5075612;27;45387;-60
2022/07/29 05:32:04;;;;;;;;;9.33;8.33;;;;;-146.44;100.00;58906.56;5062291;28;45552;-60
2022/07/29 05:34:30;;;;;;;;;9.00;8.00;;;;;-146.44;100.00;58906.56;5059834;28;45434;-61
2022/07/29 05:36:56;;;;;;;;;9.67;8.67;;;;;-146.44;100.00;58906.56;5055208;28;45447;-60
2022/07/29 05:39:21;;;;;;;;;10.00;8.33;;;;;-146.44;100.00;58906.56;5055882;28;45540;-60
2022/07/29 05:41:47;;;;;;;;;9.33;9.33;;;;;-146.44;100.00;58906.56;5056150;28;45339;-60
2022/07/29 05:44:13;;;;;;;;;8.00;8.00;;;;;-146.44;100.00;58906.56;5055552;28;45569;-60
2022/07/29 05:46:38;;;;;;;;;7.00;7.00;;;;;-146.44;100.00;58906.56;5074387;28;45391;-60
2022/07/29 05:49:06;;;;;;;;;7.00;7.00;;;;;-146.44;100.00;58906.56;5074230;27;45599;-60
2022/07/29 05:51:34;;;;;;;;;10.00;10.00;;;;;-146.44;100.00;58906.56;5076462;27;46497;-60
2022/07/29 05:54:00;;;;;;;;;8.33;8.33;;;;;-146.44;100.00;58906.56;5062500;27;45542;-60
2022/07/29 05:56:25;;;;;;;;;9.50;9.50;;;;;-146.44;100.00;58906.56;5057425;28;45439;-61
2022/07/29 05:58:54;;;;;;;;;9.00;9.00;;;;;-146.44;100.00;58906.56;5068975;28;45395;-60
2022/07/29 06:01:20;;;;;;;;;12.33;11.33;;;;;-146.44;100.00;58906.56;5066864;28;45508;-61
2022/07/29 06:03:45;;;;;;;;;7.75;7.75;;;;;-146.44;100.00;58906.56;5062896;28;45466;-61
2022/07/29 06:06:11;;;;;;;;;7.75;7.75;;;;;-146.44;100.00;58906.56;5076568;27;45387;-61
2022/07/29 06:08:38;;;;;;;;;8.75;8.75;;;;;-146.44;100.00;58906.56;5067635;27;45652;-61
2022/07/29 06:11:04;;;;;;;;;7.67;7.67;;;;;-146.44;100.00;58906.56;5055330;28;46121;-61
2022/07/29 06:13:30;;;;;;;;;12.00;11.00;;;;;-146.44;100.00;58906.56;5069105;27;45623;-61
2022/07/29 06:15:55;;;;;;;;;9.25;9.25;;;;;-146.44;100.00;58906.56;5067933;28;45438;-61
2022/07/29 06:18:23;;;;;;;;;6.00;6.00;;;;;-146.44;100.00;58906.56;5058786;28;45598;-61
2022/07/29 06:20:52;;;;;;;;;10.00;9.00;;;;;-146.44;100.00;58906.56;5055856;28;45504;-61
2022/07/29 06:23:18;;;;;;;;;6.75;6.75;;;;;-146.44;100.00;58906.56;5056205;28;45430;-61
2022/07/29 06:25:44;;;;;;;;;6.67;6.67;;;;;-146.44;100.00;58906.56;5056125;28;45510;-60
2022/07/29 06:28:10;;;;;;;;;8.67;8.67;;;;;-146.44;100.00;58906.56;5060136;27;45633;-66
2022/07/29 06:30:35;;;;;;;;;10.67;9.67;;;;;-146.44;100.00;58906.56;5065297;28;46604;-63
2022/07/29 06:33:01;;;;;;;;;11.67;9.67;;;;;-146.44;100.00;58906.56;5055387;28;45391;-67
2022/07/29 06:35:27;;;;;;;;;10.00;10.00;;;;;-146.44;100.00;58906.56;5067776;27;45586;-63
2022/07/29 06:37:52;;;;;;;;;8.50;7.50;;;;;-146.44;100.00;58906.56;5068980;27;45409;-66
2022/07/29 06:43:02;;;;;;;;;11.00;11.00;;;;;-146.44;100.00;58906.56;5059542;28;45533;-64
2022/07/29 06:45:27;;;;;;;;;10.33;10.33;;;;;-146.44;100.00;58906.56;5061921;28;45405;-63
2022/07/29 06:47:53;;;;;;;;;10.67;10.33;;;;;-146.44;100.00;58906.56;5061419;28;45558;-62
2022/07/29 06:50:18;;;;;;;;;10.00;10.00;;;;;-146.44;100.00;58906.56;5070187;28;45496;-61
2022/07/29 06:52:43;;;;;;;;;9.67;9.67;;;;;-146.44;100.00;58906.56;5054633;28;45416;-62
2022/07/29 06:55:09;;;;;;;;;9.33;9.33;;;;;-146.44;100.00;58906.56;5055764;28;45497;-63
2022/07/29 06:57:35;;;;;;;;;10.00;10.00;;;;;-146.44;100.00;58906.56;5055723;28;45501;-64
2022/07/29 07:00:00;;;;;;;;;12.00;11.00;;;;;-146.44;100.00;58906.56;5054546;28;46186;-63
2022/07/29 07:02:26;;;;;;;;;9.67;9.67;;;;;-146.44;100.00;58906.56;5064167;28;45500;-62
2022/07/29 07:04:51;;;;;;;;;13.00;13.00;;;;;-146.44;100.00;58906.56;5072005;28;45457;-63
2022/07/29 07:07:17;;;;;;;;;8.50;8.50;;;;;-146.44;100.00;58906.56;5072149;27;45751;-63
2022/07/29 07:09:43;;;;;;;;;9.50;9.50;;;;;-146.44;100.00;58906.56;5059280;28;45976;-61
2022/07/29 07:12:08;;;;;;;;;9.67;9.00;;;;;-146.44;100.00;58906.56;5067610;28;45507;-62
2022/07/29 07:14:34;;;;;;;;;11.33;10.00;;;;;-146.44;100.00;58906.56;5063164;28;45556;-63
2022/07/29 07:17:00;;;;;;;;;9.67;9.33;;;;;-146.44;100.00;58906.56;5070813;28;45355;-64
2022/07/29 07:19:26;;;;;;;;;11.00;10.00;;;;;-146.44;100.00;58906.56;5054869;28;45502;-61
2022/07/29 07:21:52;;;;;;;;;10.67;9.67;;;;;-146.44;100.00;58906.56;5053579;28;45386;-64
2022/07/29 07:24:18;;;;;;;;;8.50;8.50;;;;;-146.44;100.00;58906.56;5064330;28;45443;-62
2022/07/29 07:26:43;;;;;;;;;13.25;10.25;;;;;-146.44;100.00;58906.56;5075278;27;45307;-61
2022/07/29 07:29:08;;;;;;;;;13.33;12.33;;;;;-146.44;100.00;58906.56;5066760;27;45365;-64
2022/07/29 07:31:34;;;;;;;;;12.00;9.75;;;;;-146.44;100.00;58906.56;5054800;28;45394;-64
2022/07/29 07:33:59;;;;;;;;;12.00;10.00;;;;;-146.44;100.00;58906.56;5054155;28;45623;-64
2022/07/29 07:36:25;;;;;;;;;9.67;9.67;;;;;-146.44;100.00;58906.56;5054980;28;45666;-63
2022/07/29 07:38:50;;;;;;;;;10.75;9.50;;;;;-146.44;100.00;58906.56;5054291;28;45516;-62
2022/07/29 07:41:15;;;;;;;;;10.67;10.00;;;;;-146.44;100.00;58906.56;5056504;28;45379;-62
2022/07/29 07:43:41;;;;;;;;;8.50;8.50;;;;;-146.44;100.00;58906.56;5057961;28;45545;-63
2022/07/29 07:46:06;;;;;;;;;10.25;10.00;;;;;-146.44;100.00;58906.56;5058574;28;45588;-62
2022/07/29 07:48:34;;;;;;;;;8.00;8.00;;;;;-146.44;100.00;58906.56;5058193;28;45465;-63
2022/07/29 07:51:00;;;;;;;;;9.50;9.25;;;;;-146.44;100.00;58906.56;5057159;28;45583;-62
2022/07/29 07:53:25;;;;;;;;;8.00;8.00;;;;;-146.44;100.00;58906.56;5057387;28;45383;-62
2022/07/29 07:55:50;;;;;;;;;9.75;8.00;;;;;-146.44;100.00;58906.56;5074703;28;45599;-64
2022/07/29 07:58:16;;;;;;;;;7.50;7.50;;;;;-146.44;100.00;58906.56;5060625;27;45440;-62
2022/07/29 08:00:41;;;;;;;;;10.25;8.75;;;;;-146.44;100.00;58906.56;5062179;28;45314;-63
2022/07/29 08:03:07;;;;;;;;;11.00;10.33;;;;;-146.44;100.00;58906.56;5074037;28;45536;-63
2022/07/29 08:05:32;;;;;;;;;8.33;8.33;;;;;-146.44;100.00;58906.56;5078550;28;45561;-61
2022/07/29 08:07:57;;;;;;;;;8.50;8.00;;;;;-146.44;100.00;58906.56;5060464;28;46096;-64
2022/07/29 08:13:09;;;;;;;;;9.00;8.50;;;;;-146.44;100.00;58906.56;5057572;28;45379;-62
2022/07/29 08:15:34;;;;;;;;;7.25;7.25;;;;;-146.44;100.00;58906.56;5057517;28;45529;-63
2022/07/29 08:18:00;;;;;;;;;9.00;6.25;;;;;-146.44;100.00;58906.56;5056883;28;46294;-62
2022/07/29 08:20:26;;;;;;;;;7.75;7.75;;;;;-146.44;100.00;58906.56;5057718;28;45607;-63
2022/07/29 08:22:52;;;;;;;;;7.00;7.00;;;;;-146.44;100.00;58906.56;5056880;28;45554;-62
2022/07/29 08:25:20;;;;;;;;;5.50;5.50;;;;;-146.44;100.00;58906.56;5073483;28;45530;-62
2022/07/29 08:27:45;;;;;;;;;6.75;6.00;;;;;-146.44;100.00;58906.56;5062106;27;46436;-63
2022/07/29 08:30:11;;;;;;;;;9.25;9.25;;;;;-146.44;100.00;58906.56;5057342;28;45445;-63
2022/07/29 08:32:36;;;;;;;;;6.75;5.75;;;;;-146.44;100.00;58906.56;5058936;28;45490;-62
2022/07/29 08:35:02;;;;;;;;;8.25;8.00;;;;;-146.44;100.00;58906.56;5075023;28;45382;-62
2022/07/29 08:37:27;;;;;;;;;6.25;6.25;;;;;-146.44;100.00;58906.56;5077718;28;45999;-62
2022/07/29 08:39:53;;;;;;;;;6.50;6.50;;;;;-146.44;100.00;58906.56;5061111;27;45450;-63
2022/07/29 08:42:19;;;;;;;;;7.00;7.00;;;;;-146.44;100.00;58906.56;5056863;28;45378;-63
2022/07/29 08:44:44;;;;;;;;;5.25;5.25;;;;;-146.44;100.00;58906.56;5068756;28;45639;-62
2022/07/29 08:47:13;;;;;;;;;6.75;6.00;;;;;-146.44;100.00;58906.56;5077491;27;45322;-64
2022/07/29 08:49:39;;;;;;;;;8.25;7.00;;;;;-146.44;100.00;58906.56;5077615;27;45517;-64
2022/07/29 08:52:05;;;;;;;;;8.00;8.00;;;;;-146.44;100.00;58906.56;5071826;27;45601;-61
2022/07/29 08:54:30;;;;;;;;;5.50;5.50;;;;;-146.44;100.00;58906.56;5062831;28;45465;-62
2022/07/29 08:56:57;;;;;;;;;8.50;7.75;;;;;-146.44;100.00;58906.56;5063234;28;46126;-64
2022/07/29 08:59:26;;;;;;;;;4.00;4.00;;;;;-146.44;100.00;58906.56;5077590;28;45404;-64
2022/07/29 09:01:53;;;;;;;;;4.00;4.00;;;;;-146.44;100.00;58906.56;5071365;27;45544;-62
2022/07/29 09:04:20;;;;;;;;;6.00;5.50;;;;;-146.44;100.00;58906.56;5064044;28;45450;-64
2022/07/29 09:06:48;;;;;;;;;6.25;6.25;;;;;-146.44;100.00;58906.56;5069322;28;45464;-61
2022/07/29 09:09:14;;;;;;;;;7.00;5.25;;;;;-146.44;100.00;58906.56;5074969;27;45412;-63
2022/07/29 09:11:41;;;;;;;;;5.25;5.25;;;;;-146.44;100.00;58906.56;5063247;28;45675;-62
2022/07/29 09:14:07;;;;;;;;;5.50;5.50;;;;;-146.44;100.00;58906.56;5057132;28;45423;-62
2022/07/29 09:16:45;;;;;;;;;6.50;6.50;;;;;-146.44;100.00;58906.56;5056536;28;46038;-62
2022/07/29 09:19:25;;;;;;;;;5.00;5.00;;;;;-146.44;100.00;58906.56;5063328;28;45524;-63
2022/07/29 09:21:57;;;;;;;;;5.25;5.00;;;;;-146.44;100.00;58906.56;5086431;27;45476;-62
2022/07/29 09:24:23;;;;;;;;;7.50;7.50;;;;;-146.44;100.00;58906.56;5075588;28;45558;-64
2022/07/29 09:26:48;;;;;;;;;6.75;6.75;;;;;-146.44;100.00;58906.56;5065018;28;45414;-64
2022/07/29 09:29:19;;;;;;;;;4.50;4.50;;;;;-146.44;100.00;58906.56;5076880;28;45490;-63
2022/07/29 09:31:46;;;;;;;;;5.50;5.50;;;;;-146.44;100.00;58906.56;5071352;27;45429;-62
2022/07/29 09:34:14;;;;;;;;;8.00;6.50;;;;;-146.44;100.00;58906.56;5067541;28;45381;-65
2022/07/29 09:36:43;;;;;;;;;6.25;6.25;;;;;-146.44;100.00;58906.56;5056690;27;45985;-62
2022/07/29 09:39:09;;;;;;;;;5.00;5.00;;;;;-146.44;100.00;58906.56;5055579;28;45566;-64
2022/07/29 09:41:52;;;;;;;;;3.50;3.00;;;;;-146.44;100.00;58906.56;5055322;28;45489;-63
2022/07/29 09:44:19;;;;;;;;;5.00;5.00;;;;;-146.44;100.00;58906.56;5055916;28;45533;-63
2022/07/29 09:46:56;;;;;;;;;7.75;6.50;;;;;-146.44;100.00;58906.56;5056452;28;45469;-63
2022/07/29 09:49:22;;;;;;;;;5.00;5.00;;;;;-146.44;100.00;58906.56;5056661;28;45523;-62
2022/07/29 09:51:47;;;;;;;;;4.75;4.75;;;;;-146.44;100.00;58906.56;5059274;28;45493;-64
2022/07/29 09:54:23;;;;;;;;;3.75;3.75;;;;;-146.44;100.00;58906.56;5064438;28;45386;-64
2022/07/29 09:56:48;;;;;;;;;4.50;4.50;;;;;-146.44;100.00;58906.56;5061303;28;46201;-64
2022/07/29 09:59:13;;;;;;;;;6.75;5.25;;;;;-146.44;100.00;58906.56;5055391;28;45653;-62
2022/07/29 10:01:39;;;;;;;;;5.25;5.25;;;;;-146.44;100.00;58906.56;5057348;28;45621;-62
2022/07/29 10:04:05;;;;;;;;;6.25;6.25;;;;;-146.44;100.00;58906.56;5075676;27;45477;-63
2022/07/29 10:06:30;;;;;;;;;5.75;5.75;;;;;-146.44;100.00;58906.56;5059204;27;45442;-63
2022/07/29 10:09:08;;;;;;;;;4.50;4.50;;;;;-146.44;100.00;58906.56;5056921;28;45384;-62
2022/07/29 10:11:33;;;;;;;;;4.50;4.50;;;;;-146.44;100.00;58906.56;5055442;28;45531;-62
2022/07/29 10:14:01;;;;;;;;;4.00;4.00;;;;;-146.44;100.00;58906.56;5056381;28;45391;-62
2022/07/29 10:16:32;;;;;;;;;4.50;4.50;;;;;-146.44;100.00;58906.56;5058052;28;45521;-64
2022/07/29 10:18:59;;;;;;;;;4.00;4.00;;;;;-146.44;100.00;58906.56;5071520;28;45472;-63
2022/07/29 10:21:25;;;;;;;;;5.50;5.00;;;;;-146.44;100.00;58906.56;5056133;28;45484;-64
2022/07/29 10:23:51;;;;;;;;;5.75;5.75;;;;;-146.44;100.00;58906.56;5055854;28;45468;-63
2022/07/29 10:26:17;;;;;;;;;7.25;6.00;;;;;-146.44;100.00;58906.56;5057929;28;45521;-61
2022/07/29 10:28:42;;;;;;;;;6.50;6.25;;;;;-146.44;100.00;58906.56;5055088;28;45416;-64
2022/07/29 10:31:19;;;;;;;;;4.00;4.00;;;;;-146.44;100.00;58906.56;5054923;28;45468;-62
2022/07/29 10:34:06;;;;;;;;;5.00;5.00;;;;;-146.44;100.00;58906.56;5070195;28;45480;-64
2022/07/29 10:37:07;;;;;;;;;3.75;3.75;;;;;-146.44;100.00;58906.56;5063427;27;46175;-62
2022/07/29 10:40:00;;;;;;;;;5.75;5.75;;;;;-146.44;100.00;58906.56;5055252;28;45385;-62
2022/07/29 10:42:29;;;;;;;;;5.00;5.00;;;;;-146.44;100.00;58906.56;5055084;28;45508;-62
2022/07/29 10:44:55;;;;;;;;;5.50;5.50;;;;;-146.44;100.00;58906.56;5055613;28;45572;-61
2022/07/29 10:47:23;;;;;;;;;7.00;7.00;;;;;-146.44;100.00;58906.56;5055579;28;45397;-62
2022/07/29 10:50:05;;;;;;;;;6.00;6.00;;;;;-146.44;100.00;58906.56;5067397;28;45406;-63
2022/07/29 10:52:54;;;;;;;;;5.00;5.00;;;;;-146.44;100.00;58906.56;5068954;27;45865;-61
2022/07/29 10:55:42;;;;;;;;;5.25;5.25;;;;;-146.44;100.00;58906.56;5076013;28;45433;-63
2022/07/29 10:58:23;;;;;;;;;6.00;5.75;;;;;-146.44;100.00;58906.56;5069333;27;45759;-61
2022/07/29 11:00:51;;;;;;;;;7.00;6.00;;;;;-146.44;100.00;58906.56;5062125;28;45549;-62
2022/07/29 11:03:46;;;;;;;;;5.50;5.50;;;;;-146.44;100.00;58906.56;5054615;28;45380;-63
2022/07/29 11:06:12;;;;;;;;;5.50;5.50;;;;;-146.44;100.00;58906.56;5055191;28;45528;-63
2022/07/29 11:08:37;;;;;;;;;6.00;6.00;;;;;-146.44;100.00;58906.56;5054419;28;46035;-62
2022/07/29 11:11:36;;;;;;;;;6.00;5.00;;;;;-146.44;100.00;58906.56;5054842;28;45431;-62
2022/07/29 11:14:02;;;;;;;;;6.50;6.50;;;;;-146.44;100.00;58906.56;5046744;27;45528;-63
2022/07/29 11:17:00;;;;;;;;;5.75;5.75;;;;;-146.44;100.00;58906.56;5058212;28;45417;-62
2022/07/29 11:19:25;;;;;;;;;5.50;5.50;;;;;-146.44;100.00;58906.56;5058499;28;46196;-62
2022/07/29 11:21:51;;;;;;;;;4.00;4.00;;;;;-146.44;100.00;58906.56;5057204;28;45668;-63